createdAt,value
2018-07-22T00:00:11.159Z,20.13
2018-07-22T00:02:40.179Z,19.90
2018-07-22T00:05:08.883Z,19.94
2018-07-22T00:07:38.027Z,19.79
2018-07-22T00:10:08.983Z,19.93
2018-07-22T00:12:37.796Z,19.87
2018-07-22T00:15:06.471Z,20.16
2018-07-22T00:17:35.069Z,19.92
2018-07-22T00:20:03.765Z,19.85
2018-07-22T00:22:32.362Z,19.71
2018-07-22T00:25:00.963Z,19.87
2018-07-22T00:27:29.553Z,19.83
2018-07-22T00:29:58.117Z,19.83
2018-07-22T00:32:26.683Z,19.77
2018-07-22T00:34:55.447Z,19.82
2018-07-22T00:37:24.008Z,19.93
2018-07-22T00:39:52.544Z,19.84
2018-07-22T00:42:21.160Z,19.93
2018-07-22T00:44:49.708Z,19.79
2018-07-22T00:47:18.414Z,19.91
2018-07-22T00:49:47.144Z,19.80
2018-07-22T00:52:15.705Z,19.88
2018-07-22T00:54:44.262Z,19.87
2018-07-22T00:57:12.840Z,19.99
2018-07-22T00:59:41.376Z,19.72
2018-07-22T01:02:09.983Z,19.87
2018-07-22T01:04:38.951Z,20.06
2018-07-22T01:07:07.532Z,20.17
2018-07-22T01:09:36.130Z,20.36
2018-07-22T01:12:04.828Z,20.27
2018-07-22T01:14:33.412Z,20.40
2018-07-22T01:17:02.014Z,20.51
2018-07-22T01:19:30.627Z,20.48
2018-07-22T01:21:59.221Z,20.57
2018-07-22T01:24:27.755Z,20.61
2018-07-22T01:26:56.743Z,20.64
2018-07-22T01:29:25.284Z,20.61
2018-07-22T01:31:53.864Z,20.60
2018-07-22T01:34:22.775Z,20.72
2018-07-22T01:36:51.344Z,20.79
2018-07-22T01:39:19.899Z,20.70
2018-07-22T01:41:48.772Z,20.76
2018-07-22T01:44:17.304Z,20.77
2018-07-22T01:46:45.866Z,20.53
2018-07-22T01:49:15.088Z,20.75
2018-07-22T01:51:43.639Z,20.73
2018-07-22T01:54:12.203Z,20.73
2018-07-22T01:56:40.983Z,20.75
2018-07-22T01:59:09.555Z,20.77
2018-07-22T02:01:38.161Z,20.76
2018-07-22T02:04:07.019Z,20.71
2018-07-22T02:06:35.637Z,20.74
2018-07-22T02:09:05.091Z,20.73
2018-07-22T02:11:34.012Z,20.75
2018-07-22T02:14:02.539Z,20.68
2018-07-22T02:16:31.132Z,20.70
2018-07-22T02:18:59.715Z,20.69
2018-07-22T02:21:28.264Z,20.70
2018-07-22T02:23:56.839Z,20.69
2018-07-22T02:26:25.475Z,20.72
2018-07-22T02:28:54.025Z,20.73
2018-07-22T02:31:22.556Z,20.68
2018-07-22T02:33:51.292Z,20.69
2018-07-22T02:36:19.852Z,20.63
2018-07-22T02:38:48.395Z,20.40
2018-07-22T02:41:16.960Z,20.53
2018-07-22T02:43:45.492Z,20.59
2018-07-22T02:46:14.032Z,20.60
2018-07-22T02:48:42.766Z,20.64
2018-07-22T02:51:11.423Z,20.62
2018-07-22T02:53:39.978Z,20.58
2018-07-22T02:56:08.583Z,20.56
2018-07-22T02:58:37.125Z,20.55
2018-07-22T03:01:05.692Z,20.50
2018-07-22T03:03:34.581Z,20.58
2018-07-22T03:06:03.138Z,20.50
2018-07-22T03:08:31.959Z,20.47
2018-07-22T03:11:00.696Z,20.54
2018-07-22T03:13:29.236Z,20.49
2018-07-22T03:15:57.760Z,20.37
2018-07-22T03:18:26.329Z,20.37
2018-07-22T03:20:54.872Z,20.42
2018-07-22T03:23:23.418Z,20.44
2018-07-22T03:25:52.439Z,20.47
2018-07-22T03:28:20.979Z,20.18
2018-07-22T03:30:49.528Z,20.20
2018-07-22T03:33:18.127Z,20.08
2018-07-22T03:35:46.663Z,20.01
2018-07-22T03:38:15.207Z,19.63
2018-07-22T03:40:43.790Z,19.65
2018-07-22T03:43:12.501Z,19.58
2018-07-22T03:45:41.040Z,19.84
2018-07-22T03:48:09.741Z,19.84
2018-07-22T03:50:38.304Z,20.11
2018-07-22T03:53:06.901Z,20.22
2018-07-22T03:55:35.475Z,20.28
2018-07-22T03:58:04.047Z,20.25
2018-07-22T04:00:32.678Z,20.35
2018-07-22T04:03:01.256Z,20.30
2018-07-22T04:05:29.789Z,20.41
2018-07-22T04:07:58.324Z,20.47
2018-07-22T04:10:26.924Z,20.48
2018-07-22T04:12:55.451Z,20.51
2018-07-22T04:15:24.075Z,20.56
2018-07-22T04:17:52.679Z,20.55
2018-07-22T04:20:21.214Z,20.57
2018-07-22T04:22:49.748Z,20.55
2018-07-22T04:25:18.463Z,20.50
2018-07-22T04:27:47.012Z,20.50
2018-07-22T04:30:15.544Z,20.64
2018-07-22T04:32:44.135Z,20.70
2018-07-22T04:35:12.676Z,20.76
2018-07-22T04:37:41.300Z,20.79
2018-07-22T04:40:10.085Z,20.80
2018-07-22T04:42:38.731Z,20.87
2018-07-22T04:45:07.753Z,20.93
2018-07-22T04:47:36.449Z,20.95
2018-07-22T04:50:05.054Z,20.95
2018-07-22T04:52:33.928Z,20.98
2018-07-22T04:55:02.824Z,21.15
2018-07-22T04:57:31.368Z,21.22
2018-07-22T04:59:59.917Z,21.32
2018-07-22T05:02:28.572Z,21.42
2018-07-22T05:04:57.116Z,21.58
2018-07-22T05:07:25.664Z,21.65
2018-07-22T05:09:54.251Z,21.61
2018-07-22T05:12:22.839Z,21.69
2018-07-22T05:14:51.371Z,21.76
2018-07-22T05:17:20.367Z,21.85
2018-07-22T05:19:48.945Z,21.97
2018-07-22T05:22:17.500Z,22.08
2018-07-22T05:24:46.109Z,22.16
2018-07-22T05:27:14.692Z,22.22
2018-07-22T05:29:43.540Z,22.14
2018-07-22T05:32:12.216Z,22.13
2018-07-22T05:34:41.943Z,22.23
2018-07-22T05:37:10.567Z,22.33
2018-07-22T05:39:39.355Z,22.47
2018-07-22T05:42:08.395Z,22.51
2018-07-22T05:44:37.008Z,22.55
2018-07-22T05:47:06.287Z,22.57
2018-07-22T05:49:34.836Z,22.50
2018-07-22T05:52:03.434Z,22.61
2018-07-22T05:54:32.099Z,22.79
2018-07-22T05:57:00.644Z,22.62
2018-07-22T05:59:29.200Z,22.83
2018-07-22T06:01:58.125Z,22.88
2018-07-22T06:04:26.690Z,22.89
2018-07-22T06:06:55.760Z,22.77
2018-07-22T06:09:24.371Z,22.88
2018-07-22T06:11:53.012Z,23.03
2018-07-22T06:14:21.516Z,23.26
2018-07-22T06:16:50.228Z,23.49
2018-07-22T06:19:18.797Z,23.73
2018-07-22T06:21:47.345Z,23.76
2018-07-22T06:24:15.954Z,23.85
2018-07-22T06:26:44.512Z,24.04
2018-07-22T06:29:13.060Z,24.31
2018-07-22T06:31:41.681Z,24.39
2018-07-22T06:34:10.273Z,24.77
2018-07-22T06:36:38.816Z,24.67
2018-07-22T06:39:10.280Z,25.18
2018-07-22T06:41:38.907Z,25.48
2018-07-22T06:44:07.447Z,25.69
2018-07-22T06:46:36.081Z,26.10
2018-07-22T06:49:04.628Z,26.57
2018-07-22T06:51:33.239Z,26.90
2018-07-22T06:54:02.135Z,26.83
2018-07-22T06:56:30.748Z,27.02
2018-07-22T06:58:59.274Z,26.93
2018-07-22T07:01:27.983Z,26.58
2018-07-22T07:03:57.347Z,26.59
2018-07-22T07:06:26.215Z,26.29
2018-07-22T07:08:55.663Z,26.32
2018-07-22T07:11:26.024Z,26.91
2018-07-22T07:13:56.892Z,27.00
2018-07-22T07:16:26.020Z,27.29
2018-07-22T07:18:55.990Z,27.72
2018-07-22T07:21:26.018Z,28.06
2018-07-22T07:23:55.676Z,28.32
2018-07-22T07:26:25.360Z,28.89
2018-07-22T07:28:56.170Z,29.17
2018-07-22T07:31:26.402Z,29.33
2018-07-22T07:33:55.577Z,29.64
2018-07-22T07:36:25.400Z,29.38
2018-07-22T07:38:54.426Z,28.79
2018-07-22T07:41:24.940Z,28.45
2018-07-22T07:43:54.548Z,27.94
2018-07-22T07:46:23.660Z,27.76
2018-07-22T07:48:53.408Z,27.75
2018-07-22T07:51:24.284Z,27.75
2018-07-22T07:53:53.003Z,28.08
2018-07-22T07:56:23.801Z,28.36
2018-07-22T07:58:52.464Z,28.89
2018-07-22T08:01:23.119Z,29.04
2018-07-22T08:03:53.769Z,28.87
2018-07-22T08:06:24.227Z,28.59
2018-07-22T08:08:54.924Z,28.85
2018-07-22T08:11:24.205Z,28.50
2018-07-22T08:13:52.843Z,28.57
2018-07-22T08:16:23.549Z,28.67
2018-07-22T08:18:56.437Z,29.01
2018-07-22T08:21:23.501Z,29.36
2018-07-22T08:23:54.007Z,30.22
2018-07-22T08:26:22.963Z,31.04
2018-07-22T08:29:26.437Z,31.35
2018-07-22T08:31:55.236Z,31.30
2018-07-22T08:34:24.048Z,31.05
2018-07-22T08:36:52.601Z,30.82
2018-07-22T08:39:23.661Z,31.15
2018-07-22T08:41:52.910Z,31.09
2018-07-22T08:44:21.658Z,30.85
2018-07-22T08:46:51.364Z,30.94
2018-07-22T08:49:21.419Z,30.84
2018-07-22T08:51:52.174Z,30.55
2018-07-22T08:54:22.386Z,30.46
2018-07-22T08:56:52.750Z,30.66
2018-07-22T08:59:23.262Z,30.51
2018-07-22T09:01:53.545Z,30.61
2018-07-22T09:04:22.751Z,30.71
2018-07-22T09:06:52.394Z,30.77
2018-07-22T09:09:22.378Z,30.87
2018-07-22T09:11:52.247Z,30.44
2018-07-22T09:14:20.829Z,31.38
2018-07-22T09:16:49.764Z,31.99
2018-07-22T09:19:19.249Z,32.35
2018-07-22T09:21:47.794Z,32.76
2018-07-22T09:24:17.256Z,32.74
2018-07-22T09:26:45.801Z,33.12
2018-07-22T09:29:14.548Z,33.41
2018-07-22T09:31:43.288Z,33.92
2018-07-22T09:34:11.840Z,34.94
2018-07-22T09:36:40.425Z,35.08
2018-07-22T09:39:10.787Z,35.09
2018-07-22T09:41:39.534Z,36.48
2018-07-22T09:44:08.216Z,36.26
2018-07-22T09:46:36.889Z,35.96
2018-07-22T09:49:06.396Z,34.66
2018-07-22T09:51:34.952Z,33.45
2018-07-22T09:54:03.677Z,34.22
2018-07-22T09:56:32.239Z,35.13
2018-07-22T09:59:01.145Z,35.94
2018-07-22T10:01:30.802Z,36.07
2018-07-22T10:03:59.478Z,36.33
2018-07-22T10:06:28.140Z,36.82
2018-07-22T10:08:57.216Z,37.27
2018-07-22T10:11:25.768Z,37.90
2018-07-22T10:13:54.315Z,37.87
2018-07-22T10:16:27.027Z,38.52
2018-07-22T10:18:55.588Z,37.28
2018-07-22T10:21:24.246Z,37.83
2018-07-22T10:23:52.819Z,38.53
2018-07-22T10:26:21.520Z,39.14
2018-07-22T10:28:51.174Z,38.98
2018-07-22T10:31:19.844Z,39.31
2018-07-22T10:33:48.418Z,39.68
2018-07-22T10:36:18.060Z,39.44
2018-07-22T10:38:46.733Z,39.86
2018-07-22T10:41:15.268Z,40.20
2018-07-22T10:43:43.848Z,40.89
2018-07-22T10:46:12.641Z,40.69
2018-07-22T10:48:41.287Z,40.89
2018-07-22T10:51:10.360Z,39.95
2018-07-22T10:53:38.931Z,40.09
2018-07-22T10:56:09.825Z,39.90
2018-07-22T10:58:39.402Z,40.01
2018-07-22T11:01:07.955Z,41.55
2018-07-22T11:03:36.756Z,42.40
2018-07-22T11:06:05.395Z,42.90
2018-07-22T11:08:34.808Z,42.05
2018-07-22T11:11:03.475Z,39.15
2018-07-22T11:13:33.336Z,37.43
2018-07-22T11:16:02.060Z,36.36
2018-07-22T11:18:30.621Z,35.64
2018-07-22T11:20:59.441Z,34.88
2018-07-22T11:23:28.335Z,34.07
2018-07-22T11:25:56.910Z,33.23
2018-07-22T11:28:25.838Z,32.50
2018-07-22T11:30:55.411Z,32.30
2018-07-22T11:33:25.390Z,32.49
2018-07-22T11:35:54.586Z,32.89
2018-07-22T11:38:23.927Z,33.57
2018-07-22T11:40:53.379Z,33.07
2018-07-22T11:43:25.048Z,32.74
2018-07-22T11:45:55.948Z,32.34
2018-07-22T11:48:24.517Z,31.73
2018-07-22T11:50:53.074Z,31.37
2018-07-22T11:53:21.703Z,31.31
2018-07-22T11:55:50.263Z,32.10
2018-07-22T11:58:18.813Z,34.02
2018-07-22T12:00:49.256Z,35.33
2018-07-22T12:03:19.555Z,34.90
2018-07-22T12:05:50.192Z,34.08
2018-07-22T12:08:19.357Z,33.57
2018-07-22T12:10:47.936Z,33.88
2018-07-22T12:13:16.520Z,34.43
2018-07-22T12:15:45.068Z,36.17
2018-07-22T12:18:13.624Z,35.63
2018-07-22T12:20:42.616Z,35.02
2018-07-22T12:23:12.857Z,34.41
2018-07-22T12:25:41.632Z,34.00
2018-07-22T12:28:10.432Z,35.23
2018-07-22T12:30:39.216Z,37.08
2018-07-22T12:33:07.768Z,38.09
2018-07-22T12:35:37.074Z,38.05
2018-07-22T12:38:05.768Z,36.84
2018-07-22T12:40:34.319Z,35.77
2018-07-22T12:43:02.940Z,34.64
2018-07-22T12:45:31.812Z,34.26
2018-07-22T12:48:00.375Z,35.15
2018-07-22T12:50:29.152Z,37.12
2018-07-22T12:52:57.828Z,36.11
2018-07-22T12:55:31.091Z,35.01
2018-07-22T12:57:59.656Z,34.23
2018-07-22T13:00:29.176Z,33.75
2018-07-22T13:02:58.392Z,33.11
2018-07-22T13:05:29.402Z,32.78
2018-07-22T13:07:58.000Z,32.04
2018-07-22T13:10:26.608Z,31.98
2018-07-22T13:12:55.227Z,32.01
2018-07-22T13:15:25.084Z,33.28
2018-07-22T13:17:54.686Z,34.70
2018-07-22T13:20:23.434Z,33.93
2018-07-22T13:22:52.268Z,32.97
2018-07-22T13:25:21.133Z,31.25
2018-07-22T13:27:50.235Z,30.02
2018-07-22T13:30:18.901Z,28.59
2018-07-22T13:32:48.216Z,29.20
2018-07-22T13:35:16.856Z,31.01
2018-07-22T13:37:45.482Z,30.32
2018-07-22T13:40:14.276Z,29.34
2018-07-22T13:42:42.820Z,29.37
2018-07-22T13:45:11.626Z,28.56
2018-07-22T13:47:40.172Z,26.84
2018-07-22T13:50:08.836Z,26.55
2018-07-22T13:52:37.895Z,26.34
2018-07-22T13:55:06.473Z,25.51
2018-07-22T13:57:35.040Z,25.39
2018-07-22T14:00:03.776Z,25.29
2018-07-22T14:02:32.495Z,24.76
2018-07-22T14:05:02.253Z,24.70
2018-07-22T14:07:31.005Z,24.62
2018-07-22T14:09:59.844Z,24.74
2018-07-22T14:12:28.485Z,24.55
2018-07-22T14:14:57.467Z,24.66
2018-07-22T14:17:26.017Z,24.43
2018-07-22T14:19:54.725Z,24.39
2018-07-22T14:22:23.680Z,24.05
2018-07-22T14:24:52.224Z,24.25
2018-07-22T14:27:20.791Z,24.12
2018-07-22T14:29:49.704Z,24.03
2018-07-22T14:32:18.364Z,23.75
2018-07-22T14:34:47.036Z,23.11
2018-07-22T14:37:15.715Z,23.24
2018-07-22T14:39:44.607Z,23.12
2018-07-22T14:42:13.151Z,23.35
2018-07-22T14:44:42.402Z,23.50
2018-07-22T14:47:11.345Z,23.42
2018-07-22T14:49:39.797Z,23.38
2018-07-22T14:52:08.645Z,23.51
2018-07-22T14:54:37.220Z,23.41
2018-07-22T14:57:05.788Z,23.50
2018-07-22T14:59:34.852Z,23.52
2018-07-22T15:02:03.435Z,23.35
2018-07-22T15:04:31.990Z,23.18
2018-07-22T15:07:00.904Z,23.08
2018-07-22T15:09:29.451Z,23.15
2018-07-22T15:11:59.243Z,23.29
2018-07-22T15:14:29.244Z,23.04
2018-07-22T15:16:58.439Z,22.64
2018-07-22T15:19:27.001Z,22.25
2018-07-22T15:21:55.709Z,22.40
2018-07-22T15:24:24.523Z,22.41
2018-07-22T15:26:53.359Z,22.69
2018-07-22T15:29:22.164Z,22.69
2018-07-22T15:31:51.074Z,22.52
2018-07-22T15:34:19.764Z,22.66
2018-07-22T15:36:48.515Z,22.62
2018-07-22T15:39:17.064Z,22.55
2018-07-22T15:41:46.133Z,22.35
2018-07-22T15:44:14.988Z,22.39
2018-07-22T15:46:43.547Z,22.11
2018-07-22T15:49:12.155Z,22.11
2018-07-22T15:51:41.046Z,21.84
2018-07-22T15:54:09.711Z,21.58
2018-07-22T15:56:38.540Z,21.96
2018-07-22T15:59:07.248Z,22.05
2018-07-22T16:01:38.416Z,22.19
2018-07-22T16:04:07.236Z,22.26
2018-07-22T16:06:36.565Z,22.20
2018-07-22T16:09:08.155Z,22.37
2018-07-22T16:11:37.772Z,22.50
2018-07-22T16:14:08.250Z,22.44
2018-07-22T16:16:37.631Z,22.46
2018-07-22T16:19:06.728Z,22.64
2018-07-22T16:21:36.352Z,22.59
2018-07-22T16:24:05.427Z,22.64
2018-07-22T16:26:34.356Z,22.64
2018-07-22T16:29:03.394Z,22.63
2018-07-22T16:31:32.031Z,22.42
2018-07-22T16:34:00.596Z,22.51
2018-07-22T16:36:30.350Z,22.30
2018-07-22T16:38:59.608Z,22.37
2018-07-22T16:41:28.513Z,22.39
2018-07-22T16:43:58.288Z,22.34
2018-07-22T16:46:27.557Z,22.42
2018-07-22T16:49:01.532Z,22.40
2018-07-22T16:51:32.416Z,22.57
2018-07-22T16:54:01.012Z,22.52
2018-07-22T16:56:30.832Z,22.34
2018-07-22T16:59:00.451Z,22.38
2018-07-22T17:01:30.495Z,22.22
2018-07-22T17:03:59.725Z,22.27
2018-07-22T17:06:29.456Z,22.12
2018-07-22T17:09:00.060Z,22.20
2018-07-22T17:11:30.276Z,22.12
2018-07-22T17:13:59.990Z,22.08
2018-07-22T17:16:31.443Z,21.74
2018-07-22T17:19:02.135Z,21.83
2018-07-22T17:21:31.431Z,21.83
2018-07-22T17:24:01.907Z,21.63
2018-07-22T17:26:31.432Z,21.53
2018-07-22T17:29:00.849Z,21.62
2018-07-22T17:31:29.518Z,21.33
2018-07-22T17:33:58.304Z,21.23
2018-07-22T17:36:26.843Z,20.78
2018-07-22T17:38:55.399Z,21.30
2018-07-22T17:41:24.024Z,21.49
2018-07-22T17:43:54.732Z,21.61
2018-07-22T17:46:23.813Z,21.80
2018-07-22T17:48:52.962Z,21.74
2018-07-22T17:51:23.015Z,21.82
2018-07-22T17:53:51.620Z,21.68
2018-07-22T17:56:20.537Z,21.52
2018-07-22T17:58:49.211Z,21.51
2018-07-22T18:01:18.089Z,21.53
2018-07-22T18:03:49.007Z,21.45
2018-07-22T18:06:18.208Z,21.46
2018-07-22T18:08:47.360Z,21.34
2018-07-22T18:11:15.949Z,21.29
2018-07-22T18:13:45.024Z,21.09
2018-07-22T18:16:13.563Z,21.27
2018-07-22T18:18:42.519Z,21.40
2018-07-22T18:21:11.157Z,21.42
2018-07-22T18:23:39.736Z,21.10
2018-07-22T18:26:08.700Z,21.16
2018-07-22T18:28:37.489Z,21.17
2018-07-22T18:31:06.128Z,21.06
2018-07-22T18:33:34.931Z,21.03
2018-07-22T18:36:03.528Z,21.03
2018-07-22T18:38:32.324Z,21.19
2018-07-22T18:41:00.980Z,21.24
2018-07-22T18:43:29.580Z,21.10
2018-07-22T18:45:58.179Z,21.01
2018-07-22T18:48:26.816Z,21.10
2018-07-22T18:50:55.528Z,21.39
2018-07-22T18:53:24.306Z,21.49
2018-07-22T18:55:52.860Z,21.50
2018-07-22T18:58:21.605Z,21.61
2018-07-22T19:00:50.147Z,21.66
2018-07-22T19:03:18.837Z,21.78
2018-07-22T19:05:47.467Z,21.82
2018-07-22T19:08:16.105Z,21.84
2018-07-22T19:10:44.673Z,21.74
2018-07-22T19:13:13.488Z,21.78
2018-07-22T19:15:42.047Z,21.42
2018-07-22T19:18:10.595Z,21.40
2018-07-22T19:20:39.556Z,21.60
2018-07-22T19:23:08.240Z,21.57
2018-07-22T19:25:36.879Z,21.36
2018-07-22T19:28:05.752Z,21.26
2018-07-22T19:30:34.957Z,21.27
2018-07-22T19:33:03.618Z,21.25
2018-07-22T19:35:32.389Z,21.25
2018-07-22T19:38:01.008Z,21.07
2018-07-22T19:40:29.637Z,21.07
2018-07-22T19:42:58.188Z,21.24
2018-07-22T19:45:26.784Z,21.26
2018-07-22T19:47:55.671Z,21.31
2018-07-22T19:50:24.557Z,21.32
2018-07-22T19:52:53.108Z,21.29
2018-07-22T19:55:21.740Z,21.25
2018-07-22T19:57:50.321Z,21.29
2018-07-22T20:00:18.874Z,21.41
2018-07-22T20:02:47.428Z,21.42
2018-07-22T20:05:16.352Z,21.40
2018-07-22T20:07:45.090Z,21.29
2018-07-22T20:10:14.114Z,21.07
2018-07-22T20:12:43.101Z,21.14
2018-07-22T20:15:11.642Z,21.07
2018-07-22T20:17:40.546Z,21.03
2018-07-22T20:20:11.068Z,20.89
2018-07-22T20:22:46.076Z,20.94
2018-07-22T20:25:14.828Z,20.90
2018-07-22T20:27:44.025Z,20.91
2018-07-22T20:30:12.627Z,20.77
2018-07-22T20:32:41.208Z,20.40
2018-07-22T20:35:09.803Z,20.51
2018-07-22T20:37:38.396Z,20.23
2018-07-22T20:40:07.338Z,20.23
2018-07-22T20:42:35.896Z,20.11
2018-07-22T20:45:04.827Z,20.06
2018-07-22T20:47:34.369Z,20.09
2018-07-22T20:50:02.937Z,20.26
2018-07-22T20:52:31.617Z,19.97
2018-07-22T20:55:01.391Z,19.94
2018-07-22T20:57:30.632Z,20.30
2018-07-22T20:59:59.216Z,20.22
2018-07-22T21:02:27.863Z,20.05
2018-07-22T21:04:56.736Z,20.02
2018-07-22T21:07:25.296Z,19.94
2018-07-22T21:09:54.036Z,19.92
2018-07-22T21:12:44.439Z,20.21
2018-07-22T21:15:13.517Z,20.35
2018-07-22T21:17:42.288Z,20.02
2018-07-22T21:20:11.370Z,20.23
2018-07-22T21:22:40.192Z,20.35
2018-07-22T21:25:08.774Z,20.13
2018-07-22T21:27:37.608Z,20.35
2018-07-22T21:30:07.131Z,20.39
2018-07-22T21:32:35.656Z,20.42
2018-07-22T21:35:04.496Z,20.35
2018-07-22T21:37:33.248Z,20.44
2018-07-22T21:40:02.055Z,20.48
2018-07-22T21:42:31.390Z,20.56
2018-07-22T21:44:59.992Z,20.57
2018-07-22T21:47:28.585Z,20.50
2018-07-22T21:49:57.176Z,20.52
2018-07-22T21:52:25.912Z,20.59
2018-07-22T21:54:54.650Z,20.58
2018-07-22T21:57:23.325Z,20.49
2018-07-22T21:59:52.233Z,20.59
2018-07-22T22:02:20.883Z,20.46
2018-07-22T22:04:49.454Z,20.49
2018-07-22T22:07:18.074Z,20.39
2018-07-22T22:09:46.591Z,20.41
2018-07-22T22:12:15.144Z,20.31
2018-07-22T22:14:43.715Z,19.97
2018-07-22T22:17:12.285Z,19.59
2018-07-22T22:19:40.836Z,19.70
2018-07-22T22:22:09.460Z,19.59
2018-07-22T22:24:38.105Z,19.92
2018-07-22T22:27:06.719Z,20.10
2018-07-22T22:29:36.668Z,20.33
2018-07-22T22:32:06.779Z,20.35
2018-07-22T22:34:36.186Z,20.04
2018-07-22T22:37:05.296Z,20.24
2018-07-22T22:39:34.392Z,20.01
2018-07-22T22:42:03.661Z,19.91
2018-07-22T22:44:32.825Z,20.10
2018-07-22T22:47:01.516Z,20.37
2018-07-22T22:49:30.113Z,20.39
2018-07-22T22:51:58.656Z,20.31
2018-07-22T22:54:27.397Z,20.33
2018-07-22T22:56:56.234Z,20.37
2018-07-22T22:59:24.937Z,20.31
2018-07-22T23:01:53.619Z,20.47
2018-07-22T23:04:22.225Z,20.61
2018-07-22T23:06:50.890Z,20.39
2018-07-22T23:09:19.678Z,20.46
2018-07-22T23:11:48.310Z,20.53
2018-07-22T23:14:17.600Z,20.56
2018-07-22T23:16:46.221Z,20.48
2018-07-22T23:19:14.846Z,20.40
2018-07-22T23:21:43.481Z,20.48
2018-07-22T23:24:12.714Z,20.48
2018-07-22T23:26:41.707Z,20.48
2018-07-22T23:29:10.644Z,20.59
2018-07-22T23:31:40.227Z,20.59
2018-07-22T23:34:09.872Z,20.58
2018-07-22T23:36:38.604Z,20.59
2018-07-22T23:39:08.675Z,20.41
2018-07-22T23:41:37.511Z,20.48
2018-07-22T23:44:06.480Z,20.54
2018-07-22T23:46:35.189Z,20.51
2018-07-22T23:49:04.599Z,20.55
2018-07-22T23:51:33.181Z,20.52
2018-07-22T23:54:01.753Z,20.53
2018-07-22T23:56:30.356Z,20.60
2018-07-22T23:58:59.052Z,20.61
